createdAt,value
2019-02-15T00:00:08.933Z,6.30
2019-02-15T00:02:37.374Z,6.87
2019-02-15T00:05:07.019Z,6.17
2019-02-15T00:07:35.477Z,6.23
2019-02-15T00:10:04.457Z,6.30
2019-02-15T00:12:32.907Z,5.70
2019-02-15T00:15:01.321Z,6.03
2019-02-15T00:17:31.448Z,5.77
2019-02-15T00:20:01.537Z,5.83
2019-02-15T00:22:30.056Z,5.90
2019-02-15T00:24:58.463Z,6.63
2019-02-15T00:27:26.970Z,6.50
2019-02-15T00:29:55.382Z,6.17
2019-02-15T00:32:23.855Z,6.20
2019-02-15T00:34:52.256Z,6.10
2019-02-15T00:37:20.702Z,6.20
2019-02-15T00:39:49.095Z,6.30
2019-02-15T00:42:17.529Z,5.33
2019-02-15T00:44:45.956Z,6.20
2019-02-15T00:47:24.907Z,5.97
2019-02-15T00:49:54.961Z,6.30
2019-02-15T00:52:27.939Z,5.83
2019-02-15T00:55:03.764Z,6.13
2019-02-15T00:57:50.083Z,6.00
2019-02-15T01:00:20.189Z,6.37
2019-02-15T01:02:59.127Z,6.00
2019-02-15T01:05:38.266Z,6.13
2019-02-15T01:08:08.341Z,6.53
2019-02-15T01:10:38.473Z,7.17
2019-02-15T01:13:08.543Z,6.83
2019-02-15T01:15:36.967Z,6.90
2019-02-15T01:18:05.553Z,6.30
2019-02-15T01:20:33.989Z,6.00
2019-02-15T01:23:02.411Z,7.30
2019-02-15T01:25:32.464Z,6.47
2019-02-15T01:28:02.555Z,6.77
2019-02-15T01:30:47.644Z,5.83
2019-02-15T01:33:17.696Z,6.30
2019-02-15T01:35:50.726Z,6.33
2019-02-15T01:38:24.007Z,6.80
2019-02-15T01:40:54.130Z,6.07
2019-02-15T01:43:24.175Z,6.63
2019-02-15T01:45:54.248Z,6.40
2019-02-15T01:48:22.675Z,6.43
2019-02-15T01:50:51.094Z,7.03
2019-02-15T01:53:19.596Z,6.70
2019-02-15T01:55:48.108Z,6.37
2019-02-15T01:58:16.516Z,6.20
2019-02-15T02:00:45.128Z,6.23
2019-02-15T02:03:13.558Z,6.37
2019-02-15T02:05:42.063Z,6.23
2019-02-15T02:08:12.131Z,5.57
2019-02-15T02:10:40.911Z,6.13
2019-02-15T02:13:09.329Z,6.13
2019-02-15T02:15:37.839Z,6.43
2019-02-15T02:18:06.328Z,6.37
2019-02-15T02:20:34.754Z,6.30
2019-02-15T02:23:03.212Z,7.13
2019-02-15T02:25:31.636Z,6.47
2019-02-15T02:28:00.087Z,6.07
2019-02-15T02:30:28.566Z,7.07
2019-02-15T02:32:57.060Z,7.33
2019-02-15T02:35:25.501Z,6.43
2019-02-15T02:37:54.022Z,6.47
2019-02-15T02:40:22.380Z,5.97
2019-02-15T02:42:50.818Z,6.50
2019-02-15T02:45:19.305Z,6.57
2019-02-15T02:47:47.754Z,6.50
2019-02-15T02:50:16.169Z,6.40
2019-02-15T02:52:44.592Z,6.53
2019-02-15T02:55:13.014Z,6.23
2019-02-15T02:57:41.446Z,6.90
2019-02-15T03:00:10.166Z,6.60
2019-02-15T03:02:38.616Z,6.83
2019-02-15T03:05:07.294Z,7.20
2019-02-15T03:07:35.732Z,7.10
2019-02-15T03:10:05.797Z,6.47
2019-02-15T03:12:34.233Z,6.03
2019-02-15T03:15:02.726Z,6.10
2019-02-15T03:17:31.235Z,6.77
2019-02-15T03:19:59.642Z,6.73
2019-02-15T03:22:28.087Z,6.50
2019-02-15T03:24:56.514Z,6.77
2019-02-15T03:27:24.933Z,7.03
2019-02-15T03:29:53.364Z,6.43
2019-02-15T03:32:21.797Z,6.20
2019-02-15T03:34:50.234Z,6.30
2019-02-15T03:37:23.067Z,6.53
2019-02-15T03:39:53.138Z,6.67
2019-02-15T03:42:21.623Z,6.77
2019-02-15T03:44:50.074Z,6.43
2019-02-15T03:47:20.180Z,6.33
2019-02-15T03:49:48.684Z,6.83
2019-02-15T03:52:17.099Z,5.97
2019-02-15T03:54:45.538Z,6.87
2019-02-15T03:57:13.941Z,7.10
2019-02-15T03:59:42.473Z,6.70
2019-02-15T04:02:10.983Z,6.43
2019-02-15T04:04:39.410Z,5.57
2019-02-15T04:07:07.834Z,6.00
2019-02-15T04:09:36.305Z,5.63
2019-02-15T04:12:04.778Z,5.87
2019-02-15T04:14:33.590Z,6.03
2019-02-15T04:17:02.075Z,6.27
2019-02-15T04:19:30.487Z,6.23
2019-02-15T04:21:58.956Z,5.93
2019-02-15T04:24:27.351Z,6.23
2019-02-15T04:26:55.811Z,6.00
2019-02-15T04:29:24.235Z,6.57
2019-02-15T04:31:52.666Z,6.80
2019-02-15T04:34:21.078Z,6.57
2019-02-15T04:36:49.524Z,7.10
2019-02-15T04:39:17.920Z,6.60
2019-02-15T04:41:46.368Z,6.00
2019-02-15T04:44:14.776Z,7.50
2019-02-15T04:46:43.206Z,6.77
2019-02-15T04:49:11.603Z,6.03
2019-02-15T04:51:40.058Z,6.57
2019-02-15T04:54:08.469Z,6.17
2019-02-15T04:56:36.905Z,6.33
2019-02-15T04:59:05.309Z,6.43
2019-02-15T05:01:33.856Z,6.53
2019-02-15T05:04:02.326Z,7.37
2019-02-15T05:06:30.770Z,6.63
2019-02-15T05:08:59.216Z,6.47
2019-02-15T05:11:27.673Z,6.80
2019-02-15T05:13:56.080Z,6.73
2019-02-15T05:16:24.491Z,6.67
2019-02-15T05:18:52.948Z,6.57
2019-02-15T05:21:21.402Z,7.20
2019-02-15T05:23:49.860Z,7.03
2019-02-15T05:26:18.265Z,6.30
2019-02-15T05:28:46.712Z,6.57
2019-02-15T05:31:15.118Z,6.23
2019-02-15T05:33:43.624Z,6.73
2019-02-15T05:36:12.045Z,6.73
2019-02-15T05:38:41.305Z,6.57
2019-02-15T05:41:09.901Z,7.17
2019-02-15T05:43:38.337Z,8.20
2019-02-15T05:46:06.742Z,7.90
2019-02-15T05:48:35.177Z,7.83
2019-02-15T05:51:03.615Z,7.63
2019-02-15T05:53:32.047Z,7.00
2019-02-15T05:56:00.462Z,6.73
2019-02-15T05:58:28.925Z,6.50
2019-02-15T06:00:57.328Z,6.20
2019-02-15T06:03:25.816Z,6.60
2019-02-15T06:05:54.299Z,6.20
2019-02-15T06:08:22.733Z,13.33
2019-02-15T06:10:51.169Z,6.03
2019-02-15T06:13:19.588Z,6.17
2019-02-15T06:15:48.031Z,6.77
2019-02-15T06:18:16.538Z,6.40
2019-02-15T06:20:45.077Z,6.43
2019-02-15T06:23:13.576Z,5.93
2019-02-15T06:25:42.019Z,5.67
2019-02-15T06:28:10.657Z,6.10
2019-02-15T06:30:39.074Z,5.67
2019-02-15T06:33:07.504Z,6.60
2019-02-15T06:35:35.942Z,5.67
2019-02-15T06:38:04.347Z,6.57
2019-02-15T06:40:32.781Z,5.60
2019-02-15T06:43:01.201Z,6.27
2019-02-15T06:45:29.726Z,6.70
2019-02-15T06:47:58.220Z,6.73
2019-02-15T06:50:26.734Z,6.40
2019-02-15T06:52:55.165Z,6.00
2019-02-15T06:55:23.655Z,5.87
2019-02-15T06:57:52.065Z,6.47
2019-02-15T07:00:22.133Z,5.73
2019-02-15T07:03:01.428Z,6.23
2019-02-15T07:05:29.856Z,6.70
2019-02-15T07:07:58.279Z,6.47
2019-02-15T07:10:26.737Z,6.57
2019-02-15T07:12:55.149Z,6.43
2019-02-15T07:15:23.583Z,7.10
2019-02-15T07:17:52.152Z,6.40
2019-02-15T07:20:20.579Z,6.60
2019-02-15T07:22:49.091Z,6.47
2019-02-15T07:25:17.506Z,6.63
2019-02-15T07:27:46.021Z,7.27
2019-02-15T07:30:15.586Z,7.00
2019-02-15T07:32:44.230Z,6.67
2019-02-15T07:35:12.729Z,6.57
2019-02-15T07:37:41.182Z,6.87
2019-02-15T07:40:10.418Z,6.47
2019-02-15T07:42:39.000Z,6.23
2019-02-15T07:45:10.457Z,5.97
2019-02-15T07:47:38.994Z,6.20
2019-02-15T07:50:12.992Z,6.13
2019-02-15T07:52:41.436Z,6.00
2019-02-15T07:55:10.131Z,6.37
2019-02-15T07:57:38.618Z,6.30
2019-02-15T08:00:13.007Z,6.20
2019-02-15T08:02:41.598Z,6.87
2019-02-15T08:05:10.685Z,6.40
2019-02-15T08:07:39.306Z,5.77
2019-02-15T08:10:10.080Z,6.33
2019-02-15T08:12:38.522Z,6.40
2019-02-15T08:15:09.842Z,6.37
2019-02-15T08:17:38.300Z,6.70
2019-02-15T08:20:11.320Z,6.30
2019-02-15T08:22:39.788Z,7.43
2019-02-15T08:25:09.450Z,6.50
2019-02-15T08:27:38.006Z,6.17
2019-02-15T08:30:09.302Z,6.00
2019-02-15T08:32:37.729Z,6.67
2019-02-15T08:35:08.407Z,7.63
2019-02-15T08:37:36.813Z,6.37
2019-02-15T08:40:08.207Z,6.97
2019-02-15T08:42:36.620Z,7.13
2019-02-15T08:45:08.329Z,6.80
2019-02-15T08:47:36.823Z,6.63
2019-02-15T08:50:07.809Z,7.00
2019-02-15T08:52:36.218Z,7.50
2019-02-15T08:55:06.923Z,6.77
2019-02-15T08:57:35.343Z,6.90
2019-02-15T09:00:04.601Z,7.80
2019-02-15T09:02:33.091Z,6.73
2019-02-15T09:05:02.157Z,6.77
2019-02-15T09:07:30.752Z,6.87
2019-02-15T09:09:59.217Z,6.50
2019-02-15T09:12:27.633Z,6.97
2019-02-15T09:14:56.096Z,6.87
2019-02-15T09:17:24.522Z,6.83
2019-02-15T09:19:52.987Z,7.73
2019-02-15T09:22:21.458Z,7.23
2019-02-15T09:24:49.878Z,7.00
2019-02-15T09:27:22.439Z,7.07
2019-02-15T09:29:50.857Z,7.90
2019-02-15T09:32:19.474Z,7.13
2019-02-15T09:34:48.079Z,7.63
2019-02-15T09:37:16.460Z,7.73
2019-02-15T09:39:44.949Z,6.87
2019-02-15T09:42:13.393Z,7.47
2019-02-15T09:44:41.834Z,7.13
2019-02-15T09:47:10.266Z,7.60
2019-02-15T09:49:38.828Z,6.73
2019-02-15T09:52:07.275Z,7.00
2019-02-15T09:54:35.712Z,7.43
2019-02-15T09:57:04.262Z,7.13
2019-02-15T09:59:32.845Z,6.90
2019-02-15T10:02:01.263Z,7.40
2019-02-15T10:04:29.720Z,7.20
2019-02-15T10:06:58.239Z,7.20
2019-02-15T10:09:26.679Z,6.33
2019-02-15T10:11:55.197Z,7.10
2019-02-15T10:14:23.614Z,7.10
2019-02-15T10:16:52.186Z,7.07
2019-02-15T10:19:22.637Z,7.17
2019-02-15T10:21:50.872Z,6.83
2019-02-15T10:24:19.333Z,7.60
2019-02-15T10:26:47.738Z,6.97
2019-02-15T10:29:16.193Z,7.20
2019-02-15T10:31:44.674Z,7.40
2019-02-15T10:34:13.138Z,6.73
2019-02-15T10:36:41.547Z,7.10
2019-02-15T10:39:10.101Z,7.27
2019-02-15T10:41:38.552Z,7.30
2019-02-15T10:44:07.088Z,7.07
2019-02-15T10:46:37.767Z,6.83
2019-02-15T10:49:05.785Z,6.40
2019-02-15T10:51:34.187Z,6.33
2019-02-15T10:54:02.667Z,6.60
2019-02-15T10:56:31.145Z,6.37
2019-02-15T10:58:59.604Z,7.17
2019-02-15T11:01:28.070Z,6.27
2019-02-15T11:03:56.499Z,6.67
2019-02-15T11:06:24.942Z,6.70
2019-02-15T11:08:53.357Z,6.30
2019-02-15T11:11:21.885Z,5.70
2019-02-15T11:13:50.299Z,6.90
2019-02-15T11:16:18.760Z,6.70
2019-02-15T11:18:47.430Z,6.90
2019-02-15T11:21:15.905Z,5.90
2019-02-15T11:23:44.490Z,6.33
2019-02-15T11:26:13.093Z,5.93
2019-02-15T11:28:41.499Z,5.93
2019-02-15T11:31:10.073Z,6.63
2019-02-15T11:33:38.487Z,6.73
2019-02-15T11:36:07.133Z,6.23
2019-02-15T11:38:35.538Z,5.80
2019-02-15T11:41:10.883Z,5.80
2019-02-15T11:43:34.121Z,5.73
2019-02-15T11:46:02.589Z,5.90
2019-02-15T11:48:31.060Z,5.33
2019-02-15T11:50:59.589Z,5.20
2019-02-15T11:53:28.021Z,5.78
2019-02-15T11:55:56.632Z,5.47
2019-02-15T11:58:25.076Z,5.83
2019-02-15T12:00:53.569Z,5.80
2019-02-15T12:03:22.239Z,5.45
2019-02-15T12:05:50.667Z,5.80
2019-02-15T12:08:19.117Z,5.67
2019-02-15T12:10:47.610Z,5.80
2019-02-15T12:13:16.148Z,5.25
2019-02-15T12:15:44.650Z,4.83
2019-02-15T12:18:13.200Z,5.05
2019-02-15T12:20:41.621Z,5.70
2019-02-15T12:23:10.098Z,5.10
2019-02-15T12:25:38.536Z,5.00
2019-02-15T12:28:07.175Z,5.42
2019-02-15T12:30:35.661Z,4.95
2019-02-15T12:33:04.340Z,5.60
2019-02-15T12:35:32.772Z,4.97
2019-02-15T12:38:01.248Z,5.30
2019-02-15T12:40:29.729Z,5.15
2019-02-15T12:42:58.170Z,4.80
2019-02-15T12:45:26.618Z,5.45
2019-02-15T12:47:55.055Z,4.97
2019-02-15T12:50:23.577Z,5.08
2019-02-15T12:52:52.029Z,5.35
2019-02-15T12:55:20.475Z,5.42
2019-02-15T12:57:48.895Z,4.58
2019-02-15T13:00:17.929Z,5.28
2019-02-15T13:02:46.550Z,5.10
2019-02-15T13:05:15.130Z,5.22
2019-02-15T13:07:43.708Z,5.85
2019-02-15T13:10:20.143Z,5.90
2019-02-15T13:12:48.545Z,5.08
2019-02-15T13:15:17.133Z,5.03
2019-02-15T13:17:45.578Z,6.03
2019-02-15T13:20:14.100Z,5.65
2019-02-15T13:22:42.520Z,6.05
2019-02-15T13:25:11.130Z,5.60
2019-02-15T13:27:39.574Z,5.58
2019-02-15T13:30:12.697Z,5.47
2019-02-15T13:32:41.798Z,5.92
2019-02-15T13:35:16.099Z,5.22
2019-02-15T13:37:44.515Z,5.03
2019-02-15T13:40:13.147Z,4.90
2019-02-15T13:42:41.569Z,5.12
2019-02-15T13:45:12.429Z,5.08
2019-02-15T13:47:40.992Z,5.00
2019-02-15T13:50:11.876Z,5.35
2019-02-15T13:52:40.337Z,4.92
2019-02-15T13:55:09.880Z,5.33
2019-02-15T13:57:38.420Z,4.97
2019-02-15T14:00:14.711Z,5.08
2019-02-15T14:02:43.268Z,5.00
2019-02-15T14:05:12.680Z,4.87
2019-02-15T14:07:41.293Z,5.17
2019-02-15T14:10:14.452Z,4.83
2019-02-15T14:12:43.275Z,4.85
2019-02-15T14:15:12.655Z,4.50
2019-02-15T14:17:47.680Z,5.37
2019-02-15T14:20:14.551Z,4.60
2019-02-15T14:22:43.098Z,4.65
2019-02-15T14:25:13.014Z,6.22
2019-02-15T14:27:41.609Z,5.72
2019-02-15T14:30:11.666Z,4.83
2019-02-15T14:32:40.373Z,4.75
2019-02-15T14:35:10.807Z,4.72
2019-02-15T14:37:39.393Z,3.70
2019-02-15T14:40:10.178Z,4.30
2019-02-15T14:42:38.827Z,4.28
2019-02-15T14:45:10.400Z,3.72
2019-02-15T14:47:38.957Z,4.53
2019-02-15T14:50:09.350Z,4.60
2019-02-15T14:52:37.920Z,4.20
2019-02-15T14:55:08.124Z,4.35
2019-02-15T14:57:36.595Z,3.52
2019-02-15T15:00:08.410Z,3.72
2019-02-15T15:02:37.124Z,3.50
2019-02-15T15:05:06.706Z,4.03
2019-02-15T15:07:35.125Z,3.70
2019-02-15T15:10:04.564Z,3.20
2019-02-15T15:12:32.978Z,3.33
2019-02-15T15:15:01.756Z,3.33
2019-02-15T15:17:30.376Z,3.10
2019-02-15T15:19:58.981Z,3.22
2019-02-15T15:22:27.546Z,3.50
2019-02-15T15:24:56.101Z,3.17
2019-02-15T15:27:24.535Z,2.95
2019-02-15T15:29:53.051Z,2.97
2019-02-15T15:32:21.492Z,2.67
2019-02-15T15:34:50.214Z,2.70
2019-02-15T15:37:18.712Z,2.65
2019-02-15T15:39:47.177Z,2.47
2019-02-15T15:42:15.602Z,2.70
2019-02-15T15:44:44.132Z,2.55
2019-02-15T15:47:12.543Z,2.33
2019-02-15T15:49:41.038Z,2.35
2019-02-15T15:52:09.496Z,2.62
2019-02-15T15:54:38.083Z,2.35
2019-02-15T15:57:06.557Z,2.40
2019-02-15T15:59:34.991Z,2.43
2019-02-15T16:02:03.535Z,2.50
2019-02-15T16:04:32.062Z,2.35
2019-02-15T16:07:00.572Z,2.65
2019-02-15T16:09:29.274Z,2.27
2019-02-15T16:11:57.705Z,2.52
2019-02-15T16:14:26.137Z,2.47
2019-02-15T16:16:54.819Z,2.62
2019-02-15T16:19:23.271Z,2.62
2019-02-15T16:21:51.746Z,2.73
2019-02-15T16:24:20.151Z,3.30
2019-02-15T16:26:48.693Z,2.70
2019-02-15T16:29:17.351Z,2.75
2019-02-15T16:31:45.872Z,2.42
2019-02-15T16:34:14.323Z,2.23
2019-02-15T16:36:42.771Z,2.20
2019-02-15T16:39:11.347Z,2.20
2019-02-15T16:41:39.799Z,2.33
2019-02-15T16:44:08.399Z,2.43
2019-02-15T16:46:37.050Z,2.37
2019-02-15T16:49:05.482Z,2.60
2019-02-15T16:51:34.088Z,2.50
2019-02-15T16:54:02.483Z,3.03
2019-02-15T16:56:30.953Z,2.97
2019-02-15T16:58:59.414Z,2.70
2019-02-15T17:01:27.887Z,2.30
2019-02-15T17:03:56.334Z,2.60
2019-02-15T17:06:24.750Z,3.00
2019-02-15T17:08:53.282Z,2.67
2019-02-15T17:11:21.947Z,3.00
2019-02-15T17:13:50.420Z,3.37
2019-02-15T17:16:18.837Z,5.27
2019-02-15T17:18:51.728Z,3.37
2019-02-15T17:21:17.412Z,3.70
2019-02-15T17:23:45.847Z,3.17
2019-02-15T17:26:14.271Z,2.83
2019-02-15T17:28:42.722Z,3.10
2019-02-15T17:31:11.133Z,3.20
2019-02-15T17:33:44.970Z,3.17
2019-02-15T17:36:13.394Z,2.87
2019-02-15T17:38:41.862Z,3.17
2019-02-15T17:41:10.274Z,3.20
2019-02-15T17:43:38.728Z,3.10
2019-02-15T17:46:07.156Z,3.83
2019-02-15T17:48:35.661Z,2.90
2019-02-15T17:51:04.145Z,3.57
2019-02-15T17:53:32.603Z,3.10
2019-02-15T17:56:01.093Z,3.30
2019-02-15T17:58:29.525Z,4.13
2019-02-15T18:00:57.964Z,3.60
2019-02-15T18:03:26.451Z,4.13
2019-02-15T18:05:55.110Z,4.57
2019-02-15T18:08:23.596Z,4.40
2019-02-15T18:10:52.099Z,4.00
2019-02-15T18:13:20.531Z,4.17
2019-02-15T18:15:48.968Z,3.83
2019-02-15T18:18:17.375Z,4.07
2019-02-15T18:20:45.867Z,3.43
2019-02-15T18:23:14.301Z,3.30
2019-02-15T18:25:42.809Z,3.87
2019-02-15T18:28:11.239Z,3.40
2019-02-15T18:30:39.745Z,6.20
2019-02-15T18:33:08.191Z,3.33
2019-02-15T18:35:36.676Z,3.30
2019-02-15T18:38:05.274Z,3.90
2019-02-15T18:40:33.850Z,3.60
2019-02-15T18:43:02.362Z,3.37
2019-02-15T18:45:30.826Z,3.87
2019-02-15T18:47:59.252Z,3.80
2019-02-15T18:50:27.723Z,3.53
2019-02-15T18:52:56.187Z,3.77
2019-02-15T18:55:24.684Z,3.87
2019-02-15T18:57:53.174Z,4.30
2019-02-15T19:00:21.674Z,3.87
2019-02-15T19:02:51.964Z,3.67
2019-02-15T19:05:20.524Z,3.60
2019-02-15T19:07:48.985Z,3.60
2019-02-15T19:10:20.140Z,3.47
2019-02-15T19:12:48.597Z,3.53
2019-02-15T19:15:17.529Z,4.23
2019-02-15T19:17:46.018Z,3.90
2019-02-15T19:20:15.835Z,4.23
2019-02-15T19:22:44.431Z,4.00
2019-02-15T19:25:15.318Z,4.13
2019-02-15T19:27:43.753Z,4.23
2019-02-15T19:30:17.565Z,4.30
2019-02-15T19:32:46.110Z,4.40
2019-02-15T19:35:14.868Z,4.27
2019-02-15T19:37:43.355Z,5.20
2019-02-15T19:40:14.180Z,4.37
2019-02-15T19:42:44.110Z,5.00
2019-02-15T19:45:13.116Z,4.90
2019-02-15T19:47:41.528Z,6.47
2019-02-15T19:50:12.562Z,5.80
2019-02-15T19:52:41.271Z,5.10
2019-02-15T19:55:10.864Z,5.10
2019-02-15T19:57:39.654Z,5.17
2019-02-15T20:00:13.578Z,5.20
2019-02-15T20:02:42.497Z,5.20
2019-02-15T20:05:11.086Z,4.77
2019-02-15T20:07:39.621Z,4.87
2019-02-15T20:10:13.386Z,4.90
2019-02-15T20:12:41.917Z,5.23
2019-02-15T20:15:14.641Z,6.17
2019-02-15T20:17:43.145Z,5.43
2019-02-15T20:20:14.076Z,28.60
2019-02-15T20:22:42.588Z,8.93
2019-02-15T20:25:12.584Z,8.17
2019-02-15T20:27:41.177Z,5.80
2019-02-15T20:30:15.413Z,5.33
2019-02-15T20:32:43.965Z,5.50
2019-02-15T20:35:13.623Z,6.10
2019-02-15T20:37:42.160Z,5.57
2019-02-15T20:40:12.006Z,5.80
2019-02-15T20:42:40.545Z,5.63
2019-02-15T20:45:20.835Z,5.73
2019-02-15T20:47:49.431Z,5.47
2019-02-15T20:50:18.635Z,6.57
2019-02-15T20:52:47.157Z,5.67
2019-02-15T20:55:17.822Z,6.27
2019-02-15T20:57:47.484Z,5.53
2019-02-15T21:00:24.267Z,5.80
2019-02-15T21:02:52.817Z,5.23
2019-02-15T21:05:21.211Z,5.13
2019-02-15T21:07:49.698Z,5.90
2019-02-15T21:10:18.217Z,5.37
2019-02-15T21:12:46.762Z,5.40
2019-02-15T21:15:15.484Z,5.07
2019-02-15T21:17:44.054Z,5.20
2019-02-15T21:20:13.991Z,5.43
2019-02-15T21:22:42.673Z,5.13
2019-02-15T21:25:14.187Z,6.27
2019-02-15T21:27:42.774Z,5.60
2019-02-15T21:30:20.246Z,5.50
2019-02-15T21:32:48.738Z,5.30
2019-02-15T21:35:17.220Z,6.37
2019-02-15T21:37:45.638Z,6.30
2019-02-15T21:40:17.198Z,7.50
2019-02-15T21:42:45.888Z,6.97
2019-02-15T21:45:14.808Z,6.77
2019-02-15T21:47:43.241Z,6.40
2019-02-15T21:50:17.131Z,5.97
2019-02-15T21:52:44.566Z,5.93
2019-02-15T21:55:16.347Z,5.70
2019-02-15T21:57:45.060Z,6.10
2019-02-15T22:00:16.560Z,6.33
2019-02-15T22:02:44.981Z,5.37
2019-02-15T22:05:13.461Z,5.60
2019-02-15T22:07:41.989Z,5.47
2019-02-15T22:10:10.575Z,5.30
2019-02-15T22:12:39.122Z,5.90
2019-02-15T22:15:12.330Z,6.23
2019-02-15T22:17:40.797Z,6.90
2019-02-15T22:20:11.669Z,5.97
2019-02-15T22:22:40.126Z,6.40
2019-02-15T22:25:09.081Z,6.27
2019-02-15T22:27:37.590Z,7.17
2019-02-15T22:30:11.351Z,7.07
2019-02-15T22:32:39.805Z,6.40
2019-02-15T22:35:08.558Z,6.30
2019-02-15T22:37:37.079Z,7.57
2019-02-15T22:40:31.427Z,7.73
2019-02-15T22:43:08.594Z,7.93
2019-02-15T22:45:37.068Z,5.93
2019-02-15T22:48:05.653Z,6.50
2019-02-15T22:50:36.370Z,9.40
2019-02-15T22:53:04.435Z,7.53
2019-02-15T22:55:32.850Z,9.10
2019-02-15T22:58:01.358Z,7.43
2019-02-15T23:00:51.042Z,8.40
2019-02-15T23:03:22.050Z,7.40
2019-02-15T23:05:50.546Z,6.40
2019-02-15T23:08:19.130Z,7.00
2019-02-15T23:10:47.646Z,6.77
2019-02-15T23:13:16.175Z,6.33
2019-02-15T23:15:44.666Z,5.83
2019-02-15T23:18:13.223Z,7.07
2019-02-15T23:20:45.541Z,6.07
2019-02-15T23:23:12.279Z,5.90
2019-02-15T23:25:40.773Z,5.90
2019-02-15T23:28:09.206Z,6.57
2019-02-15T23:30:37.710Z,6.40
2019-02-15T23:33:06.260Z,6.37
2019-02-15T23:35:34.689Z,6.33
2019-02-15T23:38:03.172Z,6.63
2019-02-15T23:40:31.628Z,6.40
2019-02-15T23:43:00.091Z,6.87
2019-02-15T23:45:28.540Z,6.37
2019-02-15T23:47:56.963Z,7.60
2019-02-15T23:50:25.417Z,7.10
2019-02-15T23:52:53.898Z,7.10
2019-02-15T23:55:22.351Z,7.80
2019-02-15T23:57:50.823Z,7.33
